createdAt,value
2023-03-23T00:00:11.070Z,0.00
2023-03-23T00:01:11.886Z,0.00
2023-03-23T00:02:11.013Z,0.00
2023-03-23T00:03:10.974Z,0.00
2023-03-23T00:04:10.992Z,0.00
2023-03-23T00:05:10.940Z,0.00
2023-03-23T00:06:10.959Z,0.00
2023-03-23T00:07:10.915Z,0.00
2023-03-23T00:08:10.891Z,0.00
2023-03-23T00:09:10.904Z,0.00
2023-03-23T00:10:10.890Z,0.00
2023-03-23T00:11:10.848Z,0.00
2023-03-23T00:12:10.829Z,0.00
2023-03-23T00:13:10.877Z,0.00
2023-03-23T00:14:10.800Z,0.00
2023-03-23T00:15:10.794Z,0.00
2023-03-23T00:16:10.763Z,0.00
2023-03-23T00:17:10.742Z,0.00
2023-03-23T00:18:10.757Z,0.00
2023-03-23T00:19:10.715Z,0.00
2023-03-23T00:20:10.698Z,0.00
2023-03-23T00:21:10.683Z,0.00
2023-03-23T00:22:10.700Z,0.00
2023-03-23T00:23:10.680Z,0.00
2023-03-23T00:24:10.667Z,0.00
2023-03-23T00:25:10.648Z,0.00
2023-03-23T00:26:10.607Z,0.00
2023-03-23T00:27:10.583Z,0.00
2023-03-23T00:28:10.564Z,0.00
2023-03-23T00:29:10.548Z,0.00
2023-03-23T00:30:10.560Z,0.00
2023-03-23T00:31:10.526Z,0.00
2023-03-23T00:32:10.503Z,0.00
2023-03-23T00:33:10.484Z,0.00
2023-03-23T00:34:10.470Z,0.00
2023-03-23T00:35:10.483Z,0.00
2023-03-23T00:36:10.443Z,0.00
2023-03-23T00:37:10.420Z,0.00
2023-03-23T00:38:10.413Z,0.00
2023-03-23T00:39:10.390Z,0.00
2023-03-23T00:40:10.403Z,0.00
2023-03-23T00:41:10.354Z,0.00
2023-03-23T00:42:10.346Z,0.00
2023-03-23T00:43:10.326Z,0.00
2023-03-23T00:44:10.307Z,0.00
2023-03-23T00:45:10.329Z,0.00
2023-03-23T00:46:10.277Z,0.00
2023-03-23T00:47:10.257Z,0.00
2023-03-23T00:48:10.269Z,0.00
2023-03-23T00:49:10.231Z,0.00
2023-03-23T00:50:10.234Z,0.00
2023-03-23T00:51:10.209Z,0.00
2023-03-23T00:52:10.176Z,0.00
2023-03-23T00:53:10.200Z,0.00
2023-03-23T00:54:10.153Z,0.00
2023-03-23T00:55:10.125Z,0.00
2023-03-23T00:56:10.111Z,0.00
2023-03-23T00:57:10.092Z,0.00
2023-03-23T00:58:10.115Z,0.00
2023-03-23T00:59:10.097Z,0.00
2023-03-23T01:00:10.045Z,0.00
2023-03-23T01:01:10.046Z,0.00
2023-03-23T01:02:10.011Z,0.00
2023-03-23T01:03:10.051Z,0.00
2023-03-23T01:04:09.977Z,0.00
2023-03-23T01:05:09.970Z,0.00
2023-03-23T01:06:09.983Z,0.00
2023-03-23T01:07:09.928Z,0.00
2023-03-23T01:08:09.917Z,0.00
2023-03-23T01:09:09.946Z,0.00
2023-03-23T01:10:09.888Z,0.00
2023-03-23T01:11:09.897Z,0.00
2023-03-23T01:12:09.845Z,0.00
2023-03-23T01:13:09.828Z,0.00
2023-03-23T01:14:09.815Z,0.00
2023-03-23T01:15:09.795Z,0.00
2023-03-23T01:16:09.782Z,0.00
2023-03-23T01:17:09.789Z,0.00
2023-03-23T01:18:09.747Z,0.00
2023-03-23T01:19:09.729Z,0.00
2023-03-23T01:20:09.712Z,0.00
2023-03-23T01:21:09.723Z,0.00
2023-03-23T01:22:09.684Z,0.00
2023-03-23T01:23:09.696Z,0.00
2023-03-23T01:24:09.650Z,0.00
2023-03-23T01:25:09.631Z,0.00
2023-03-23T01:26:09.621Z,0.00
2023-03-23T01:27:09.599Z,0.00
2023-03-23T01:28:09.609Z,0.00
2023-03-23T01:29:09.566Z,0.00
2023-03-23T01:30:09.557Z,0.00
2023-03-23T01:31:14.623Z,0.00
2023-03-23T01:32:09.539Z,0.00
2023-03-23T01:33:09.497Z,0.00
2023-03-23T01:34:09.516Z,0.00
2023-03-23T01:35:09.492Z,0.00
2023-03-23T01:36:09.449Z,0.00
2023-03-23T01:37:09.431Z,0.00
2023-03-23T01:38:09.416Z,0.00
2023-03-23T01:39:09.402Z,0.00
2023-03-23T01:40:09.404Z,0.00
2023-03-23T01:41:09.368Z,0.00
2023-03-23T01:42:09.363Z,0.00
2023-03-23T01:43:09.336Z,0.00
2023-03-23T01:44:09.350Z,0.00
2023-03-23T01:45:09.303Z,0.00
2023-03-23T01:46:09.289Z,0.00
2023-03-23T01:47:09.270Z,0.00
2023-03-23T01:48:09.258Z,0.00
2023-03-23T01:49:09.264Z,0.00
2023-03-23T01:50:09.228Z,0.00
2023-03-23T01:51:09.209Z,0.00
2023-03-23T01:52:09.187Z,0.00
2023-03-23T01:53:09.982Z,0.00
2023-03-23T01:54:09.337Z,0.00
2023-03-23T01:55:09.145Z,0.00
2023-03-23T01:56:09.126Z,0.00
2023-03-23T01:57:09.109Z,0.00
2023-03-23T01:58:09.100Z,0.00
2023-03-23T01:59:09.130Z,0.00
2023-03-23T02:00:09.060Z,0.00
2023-03-23T02:01:09.040Z,0.00
2023-03-23T02:02:09.026Z,0.00
2023-03-23T02:03:09.011Z,0.00
2023-03-23T02:04:08.993Z,0.00
2023-03-23T02:05:08.977Z,0.00
2023-03-23T02:06:08.973Z,0.00
2023-03-23T02:07:08.946Z,0.00
2023-03-23T02:08:08.929Z,0.00
2023-03-23T02:09:10.637Z,0.00
2023-03-23T02:10:08.922Z,0.00
2023-03-23T02:11:08.876Z,0.00
2023-03-23T02:12:08.862Z,0.00
2023-03-23T02:13:08.937Z,0.00
2023-03-23T02:14:08.838Z,0.00
2023-03-23T02:15:08.848Z,0.00
2023-03-23T02:16:08.794Z,0.00
2023-03-23T02:17:08.806Z,0.00
2023-03-23T02:18:08.762Z,0.00
2023-03-23T02:19:08.745Z,0.00
2023-03-23T02:20:08.730Z,0.00
2023-03-23T02:21:08.746Z,0.00
2023-03-23T02:22:08.700Z,0.00
2023-03-23T02:23:08.677Z,0.00
2023-03-23T02:24:08.663Z,0.00
2023-03-23T02:25:08.646Z,0.00
2023-03-23T02:26:08.635Z,0.00
2023-03-23T02:27:08.644Z,0.00
2023-03-23T02:28:08.617Z,0.00
2023-03-23T02:29:08.587Z,0.00
2023-03-23T02:30:08.579Z,0.00
2023-03-23T02:31:08.547Z,0.00
2023-03-23T02:32:08.536Z,0.00
2023-03-23T02:33:08.517Z,0.00
2023-03-23T02:34:08.505Z,0.00
2023-03-23T02:35:08.481Z,0.00
2023-03-23T02:36:08.496Z,0.00
2023-03-23T02:37:08.449Z,0.00
2023-03-23T02:38:08.484Z,0.00
2023-03-23T02:39:08.422Z,0.00
2023-03-23T02:40:08.424Z,0.00
2023-03-23T02:41:08.382Z,0.00
2023-03-23T02:42:13.489Z,0.00
2023-03-23T02:43:08.351Z,0.00
2023-03-23T02:44:08.365Z,0.00
2023-03-23T02:45:08.320Z,0.00
2023-03-23T02:46:08.311Z,0.00
2023-03-23T02:47:08.282Z,0.00
2023-03-23T02:48:08.277Z,0.00
2023-03-23T02:49:08.657Z,0.00
2023-03-23T02:50:08.236Z,0.00
2023-03-23T02:51:08.249Z,0.00
2023-03-23T02:52:08.202Z,0.00
2023-03-23T02:53:08.188Z,0.00
2023-03-23T02:54:08.170Z,0.00
2023-03-23T02:55:08.179Z,0.00
2023-03-23T02:56:08.193Z,0.00
2023-03-23T02:57:08.119Z,0.00
2023-03-23T02:58:08.105Z,0.00
2023-03-23T02:59:08.087Z,0.00
2023-03-23T03:00:08.073Z,0.00
2023-03-23T03:01:08.069Z,0.00
2023-03-23T03:02:08.048Z,0.00
2023-03-23T03:03:08.021Z,0.00
2023-03-23T03:04:08.014Z,0.00
2023-03-23T03:05:07.987Z,0.00
2023-03-23T03:06:07.979Z,0.00
2023-03-23T03:07:07.961Z,0.00
2023-03-23T03:08:07.938Z,0.00
2023-03-23T03:09:07.924Z,0.00
2023-03-23T03:10:07.905Z,0.00
2023-03-23T03:11:07.892Z,0.00
2023-03-23T03:12:07.902Z,0.00
2023-03-23T03:13:07.856Z,0.00
2023-03-23T03:14:07.842Z,0.00
2023-03-23T03:15:07.830Z,0.00
2023-03-23T03:16:07.813Z,0.00
2023-03-23T03:17:07.799Z,0.00
2023-03-23T03:18:07.816Z,0.00
2023-03-23T03:19:07.785Z,0.00
2023-03-23T03:20:07.749Z,0.00
2023-03-23T03:21:07.733Z,0.00
2023-03-23T03:22:07.722Z,0.00
2023-03-23T03:23:07.696Z,0.00
2023-03-23T03:24:07.712Z,0.00
2023-03-23T03:25:18.179Z,0.00
2023-03-23T03:26:07.650Z,0.00
2023-03-23T03:27:07.638Z,0.00
2023-03-23T03:28:07.628Z,0.00
2023-03-23T03:29:07.654Z,0.00
2023-03-23T03:30:07.588Z,0.00
2023-03-23T03:31:07.566Z,0.00
2023-03-23T03:32:07.551Z,0.00
2023-03-23T03:33:07.537Z,0.00
2023-03-23T03:34:07.530Z,0.00
2023-03-23T03:35:07.505Z,0.00
2023-03-23T03:36:07.547Z,0.00
2023-03-23T03:37:07.471Z,0.00
2023-03-23T03:38:07.458Z,0.00
2023-03-23T03:39:07.439Z,0.00
2023-03-23T03:40:07.470Z,0.00
2023-03-23T03:41:07.404Z,0.00
2023-03-23T03:42:07.389Z,0.00
2023-03-23T03:43:07.395Z,0.00
2023-03-23T03:44:07.358Z,0.00
2023-03-23T03:45:07.342Z,0.00
2023-03-23T03:46:07.372Z,0.00
2023-03-23T03:47:07.308Z,0.00
2023-03-23T03:48:37.843Z,0.00
2023-03-23T03:49:07.284Z,0.00
2023-03-23T03:50:07.266Z,0.00
2023-03-23T03:51:07.246Z,0.00
2023-03-23T03:52:07.231Z,0.00
2023-03-23T03:53:07.219Z,0.00
2023-03-23T03:54:07.226Z,0.00
2023-03-23T03:55:07.191Z,0.00
2023-03-23T03:56:07.168Z,0.00
2023-03-23T03:57:07.155Z,0.00
2023-03-23T03:58:07.127Z,0.00
2023-03-23T03:59:22.136Z,0.00
2023-03-23T04:00:07.102Z,0.00
2023-03-23T04:01:07.078Z,0.00
2023-03-23T04:02:07.064Z,0.00
2023-03-23T04:03:07.051Z,0.00
2023-03-23T04:04:07.074Z,0.00
2023-03-23T04:05:07.013Z,0.00
2023-03-23T04:06:07.008Z,0.00
2023-03-23T04:07:06.988Z,0.00
2023-03-23T04:08:09.241Z,0.00
2023-03-23T04:09:07.610Z,0.00
2023-03-23T04:10:06.972Z,0.00
2023-03-23T04:11:06.917Z,0.00
2023-03-23T04:12:06.900Z,0.00
2023-03-23T04:13:06.891Z,0.00
2023-03-23T04:14:06.892Z,0.00
2023-03-23T04:15:06.918Z,0.00
2023-03-23T04:16:10.059Z,0.00
2023-03-23T04:17:06.821Z,0.00
2023-03-23T04:18:06.812Z,0.00
2023-03-23T04:19:06.803Z,0.00
2023-03-23T04:20:06.777Z,0.00
2023-03-23T04:21:06.757Z,0.00
2023-03-23T04:22:06.780Z,0.00
2023-03-23T04:23:06.722Z,0.00
2023-03-23T04:24:06.761Z,0.00
2023-03-23T04:25:06.687Z,0.00
2023-03-23T04:26:06.677Z,0.00
2023-03-23T04:27:06.655Z,0.00
2023-03-23T04:28:06.638Z,0.00
2023-03-23T04:29:06.626Z,0.00
2023-03-23T04:30:06.653Z,0.00
2023-03-23T04:31:06.592Z,0.00
2023-03-23T04:32:06.573Z,0.00
2023-03-23T04:33:06.558Z,0.00
2023-03-23T04:34:06.554Z,0.00
2023-03-23T04:35:12.795Z,0.00
2023-03-23T04:36:06.572Z,0.00
2023-03-23T04:37:06.495Z,0.00
2023-03-23T04:38:06.488Z,0.00
2023-03-23T04:39:06.469Z,0.00
2023-03-23T04:40:06.448Z,0.00
2023-03-23T04:41:06.456Z,0.00
2023-03-23T04:42:06.410Z,0.00
2023-03-23T04:43:06.410Z,0.00
2023-03-23T04:44:06.384Z,0.00
2023-03-23T04:45:06.367Z,0.00
2023-03-23T04:46:06.345Z,0.00
2023-03-23T04:47:06.344Z,0.00
2023-03-23T04:48:06.317Z,0.00
2023-03-23T04:49:06.313Z,0.00
2023-03-23T04:50:06.303Z,0.00
2023-03-23T04:51:06.268Z,0.00
2023-03-23T04:52:06.257Z,0.00
2023-03-23T04:53:06.235Z,0.00
2023-03-23T04:54:06.222Z,0.00
2023-03-23T04:55:06.228Z,0.00
2023-03-23T04:56:06.180Z,0.00
2023-03-23T04:57:06.166Z,0.00
2023-03-23T04:58:06.153Z,0.00
2023-03-23T04:59:06.137Z,0.00
2023-03-23T05:00:06.163Z,0.00
2023-03-23T05:01:06.107Z,0.00
2023-03-23T05:02:14.642Z,0.00
2023-03-23T05:03:06.071Z,0.00
2023-03-23T05:04:06.063Z,0.00
2023-03-23T05:05:06.050Z,4.00
2023-03-23T05:06:06.036Z,4.00
2023-03-23T05:07:06.006Z,0.00
2023-03-23T05:08:05.989Z,4.00
2023-03-23T05:09:05.973Z,4.00
2023-03-23T05:10:05.962Z,4.00
2023-03-23T05:11:05.952Z,4.00
2023-03-23T05:12:05.921Z,4.00
2023-03-23T05:13:05.932Z,4.00
2023-03-23T05:14:05.894Z,4.00
2023-03-23T05:15:05.875Z,8.00
2023-03-23T05:16:05.862Z,16.00
2023-03-23T05:17:05.880Z,20.00
2023-03-23T05:18:05.826Z,20.00
2023-03-23T05:19:05.807Z,24.00
2023-03-23T05:20:05.805Z,32.00
2023-03-23T05:21:05.778Z,36.00
2023-03-23T05:22:05.756Z,36.00
2023-03-23T05:23:05.748Z,40.00
2023-03-23T05:24:05.726Z,36.00
2023-03-23T05:25:05.765Z,44.00
2023-03-23T05:26:05.708Z,52.00
2023-03-23T05:27:05.681Z,60.00
2023-03-23T05:28:05.666Z,60.00
2023-03-23T05:29:05.656Z,72.00
2023-03-23T05:30:05.644Z,76.00
2023-03-23T05:31:05.647Z,76.00
2023-03-23T05:32:05.600Z,72.00
2023-03-23T05:33:05.580Z,76.00
2023-03-23T05:34:05.593Z,80.00
2023-03-23T05:35:05.596Z,84.00
2023-03-23T05:36:05.625Z,100.00
2023-03-23T05:37:05.514Z,100.00
2023-03-23T05:38:05.498Z,92.00
2023-03-23T05:39:05.496Z,108.00
2023-03-23T05:40:05.466Z,104.00
2023-03-23T05:41:05.508Z,80.00
2023-03-23T05:42:05.451Z,72.00
2023-03-23T05:43:05.417Z,76.00
2023-03-23T05:44:05.412Z,64.00
2023-03-23T05:45:05.499Z,84.00
2023-03-23T05:46:05.394Z,92.00
2023-03-23T05:47:05.350Z,124.00
2023-03-23T05:48:05.338Z,144.00
2023-03-23T05:49:05.317Z,120.00
2023-03-23T05:50:05.314Z,124.00
2023-03-23T05:51:05.320Z,136.00
2023-03-23T05:52:05.274Z,180.00
2023-03-23T05:53:05.262Z,188.00
2023-03-23T05:54:05.243Z,176.00
2023-03-23T05:55:05.224Z,224.00
2023-03-23T05:56:05.204Z,228.00
2023-03-23T05:57:05.189Z,216.00
2023-03-23T05:58:05.181Z,208.00
2023-03-23T05:59:05.264Z,216.00
2023-03-23T06:00:05.138Z,308.00
2023-03-23T06:01:05.122Z,268.00
2023-03-23T06:02:05.111Z,228.00
2023-03-23T06:03:05.090Z,224.00
2023-03-23T06:04:05.074Z,332.00
2023-03-23T06:05:05.065Z,376.00
2023-03-23T06:06:05.048Z,484.00
2023-03-23T06:07:05.071Z,468.00
2023-03-23T06:08:05.009Z,456.00
2023-03-23T06:09:06.625Z,432.00
2023-03-23T06:10:04.982Z,412.00
2023-03-23T06:11:04.976Z,360.00
2023-03-23T06:12:04.972Z,312.00
2023-03-23T06:13:04.954Z,376.00
2023-03-23T06:14:04.927Z,404.00
2023-03-23T06:15:12.489Z,512.00
2023-03-23T06:16:04.879Z,604.00
2023-03-23T06:17:04.864Z,616.00
2023-03-23T06:18:04.883Z,544.00
2023-03-23T06:19:04.832Z,556.00
2023-03-23T06:20:04.817Z,520.00
2023-03-23T06:21:04.824Z,524.00
2023-03-23T06:22:04.782Z,592.00
2023-03-23T06:23:04.796Z,644.00
2023-03-23T06:24:04.749Z,852.00
2023-03-23T06:25:04.736Z,960.00
2023-03-23T06:26:04.797Z,1044.00
2023-03-23T06:27:04.707Z,1168.00
2023-03-23T06:28:04.712Z,1148.00
2023-03-23T06:29:04.680Z,1116.00
2023-03-23T06:30:04.670Z,1180.00
2023-03-23T06:31:04.668Z,1148.00
2023-03-23T06:32:04.624Z,1012.00
2023-03-23T06:33:04.641Z,972.00
2023-03-23T06:34:04.591Z,956.00
2023-03-23T06:35:04.662Z,1004.00
2023-03-23T06:36:04.606Z,1080.00
2023-03-23T06:37:04.545Z,1196.00
2023-03-23T06:38:04.565Z,1336.00
2023-03-23T06:39:04.513Z,1464.00
2023-03-23T06:40:04.500Z,1504.00
2023-03-23T06:41:04.482Z,1504.00
2023-03-23T06:42:04.464Z,1408.00
2023-03-23T06:43:04.451Z,1316.00
2023-03-23T06:44:04.434Z,1276.00
2023-03-23T06:45:04.455Z,1280.00
2023-03-23T06:46:04.408Z,1328.00
2023-03-23T06:47:04.395Z,1392.00
2023-03-23T06:48:04.396Z,1404.00
2023-03-23T06:49:04.353Z,1380.00
2023-03-23T06:50:04.337Z,1388.00
2023-03-23T06:51:04.326Z,1460.00
2023-03-23T06:52:04.316Z,1476.00
2023-03-23T06:53:04.288Z,1416.00
2023-03-23T06:54:04.311Z,1324.00
2023-03-23T06:55:04.258Z,1200.00
2023-03-23T06:56:04.237Z,1160.00
2023-03-23T06:57:04.225Z,1160.00
2023-03-23T06:58:04.211Z,1180.00
2023-03-23T06:59:04.228Z,1244.00
2023-03-23T07:00:04.235Z,1312.00
2023-03-23T07:01:04.162Z,1308.00
2023-03-23T07:02:04.152Z,1340.00
2023-03-23T07:03:04.133Z,1380.00
2023-03-23T07:04:04.117Z,1488.00
2023-03-23T07:05:04.095Z,1752.00
2023-03-23T07:06:04.691Z,1996.00
2023-03-23T07:07:04.070Z,2024.00
2023-03-23T07:08:04.048Z,1952.00
2023-03-23T07:09:04.069Z,2144.00
2023-03-23T07:10:04.016Z,2424.00
2023-03-23T07:11:04.008Z,2624.00
2023-03-23T07:12:03.993Z,2748.00
2023-03-23T07:13:03.972Z,2848.00
2023-03-23T07:14:04.011Z,2884.00
2023-03-23T07:15:03.937Z,2864.00
2023-03-23T07:16:03.928Z,3012.00
2023-03-23T07:17:04.003Z,2828.00
2023-03-23T07:18:03.898Z,2852.00
2023-03-23T07:19:03.878Z,2920.00
2023-03-23T07:20:03.867Z,3088.00
2023-03-23T07:21:03.844Z,3312.00
2023-03-23T07:22:03.831Z,3236.00
2023-03-23T07:23:03.814Z,3264.00
2023-03-23T07:24:03.816Z,3460.00
2023-03-23T07:25:03.810Z,3624.00
2023-03-23T07:26:03.771Z,3764.00
2023-03-23T07:27:03.767Z,3864.00
2023-03-23T07:28:03.740Z,3648.00
2023-03-23T07:29:03.720Z,3440.00
2023-03-23T07:30:03.760Z,3296.00
2023-03-23T07:31:03.697Z,3328.00
2023-03-23T07:32:03.679Z,3344.00
2023-03-23T07:33:03.661Z,3220.00
2023-03-23T07:34:03.664Z,3260.00
2023-03-23T07:35:03.629Z,3384.00
2023-03-23T07:36:03.661Z,3376.00
2023-03-23T07:37:03.625Z,3324.00
2023-03-23T07:38:03.584Z,3276.00
2023-03-23T07:39:03.567Z,2996.00
2023-03-23T07:40:03.551Z,2688.00
2023-03-23T07:41:03.568Z,2872.00
2023-03-23T07:42:03.521Z,2740.00
2023-03-23T07:43:03.506Z,2720.00
2023-03-23T07:44:03.493Z,2572.00
2023-03-23T07:45:03.489Z,2872.00
2023-03-23T07:46:03.518Z,2692.00
2023-03-23T07:47:03.453Z,3160.00
2023-03-23T07:48:05.288Z,3208.00
2023-03-23T07:49:03.416Z,3572.00
2023-03-23T07:50:03.412Z,3812.00
2023-03-23T07:51:03.397Z,3676.00
2023-03-23T07:52:03.371Z,3672.00
2023-03-23T07:53:03.357Z,3732.00
2023-03-23T07:54:05.161Z,3844.00
2023-03-23T07:55:03.360Z,3432.00
2023-03-23T07:56:03.310Z,2996.00
2023-03-23T07:57:03.302Z,2920.00
2023-03-23T07:58:03.279Z,3000.00
2023-03-23T07:59:03.282Z,2832.00
2023-03-23T08:00:03.294Z,2472.00
2023-03-23T08:01:03.242Z,2452.00
2023-03-23T08:02:03.216Z,2856.00
2023-03-23T08:03:03.203Z,3252.00
2023-03-23T08:04:03.187Z,4092.00
2023-03-23T08:05:03.171Z,3784.00
2023-03-23T08:06:03.171Z,3804.00
2023-03-23T08:07:03.143Z,2916.00
2023-03-23T08:08:03.124Z,3024.00
2023-03-23T08:09:03.112Z,3644.00
2023-03-23T08:10:03.096Z,3532.00
2023-03-23T08:11:03.088Z,3188.00
2023-03-23T08:12:03.062Z,3228.00
2023-03-23T08:13:03.049Z,2664.00
2023-03-23T08:14:03.111Z,3560.00
2023-03-23T08:15:03.019Z,3244.00
2023-03-23T08:16:03.032Z,2896.00
2023-03-23T08:17:02.990Z,3524.00
2023-03-23T08:18:03.008Z,2676.00
2023-03-23T08:19:08.451Z,2376.00
2023-03-23T08:20:02.948Z,2276.00
2023-03-23T08:21:02.928Z,1820.00
2023-03-23T08:22:02.952Z,1368.00
2023-03-23T08:23:02.897Z,1660.00
2023-03-23T08:24:02.879Z,1416.00
2023-03-23T08:25:02.872Z,1568.00
2023-03-23T08:26:02.855Z,1408.00
2023-03-23T08:27:02.866Z,1436.00
2023-03-23T08:28:02.830Z,1244.00
2023-03-23T08:29:02.844Z,1464.00
2023-03-23T08:30:02.795Z,1196.00
2023-03-23T08:31:02.784Z,1400.00
2023-03-23T08:32:02.787Z,1668.00
2023-03-23T08:33:02.752Z,1992.00
2023-03-23T08:34:02.728Z,1608.00
2023-03-23T08:35:02.739Z,1548.00
2023-03-23T08:36:02.721Z,1988.00
2023-03-23T08:37:02.684Z,2496.00
2023-03-23T08:38:02.678Z,3320.00
2023-03-23T08:39:02.680Z,3300.00
2023-03-23T08:40:02.661Z,2496.00
2023-03-23T08:41:02.621Z,2100.00
2023-03-23T08:42:02.615Z,2488.00
2023-03-23T08:43:02.611Z,1992.00
2023-03-23T08:44:02.583Z,2112.00
2023-03-23T08:45:02.558Z,2124.00
2023-03-23T08:46:02.565Z,1908.00
2023-03-23T08:47:02.529Z,1792.00
2023-03-23T08:48:02.543Z,1704.00
2023-03-23T08:49:02.523Z,1728.00
2023-03-23T08:50:02.492Z,1932.00
2023-03-23T08:51:02.529Z,1596.00
2023-03-23T08:52:02.458Z,1560.00
2023-03-23T08:53:02.484Z,1432.00
2023-03-23T08:54:02.433Z,1456.00
2023-03-23T08:55:02.409Z,1612.00
2023-03-23T08:56:02.398Z,1804.00
2023-03-23T08:57:02.377Z,1552.00
2023-03-23T08:58:02.370Z,1952.00
2023-03-23T08:59:02.390Z,1752.00
2023-03-23T09:00:02.339Z,2788.00
2023-03-23T09:01:02.316Z,2776.00
2023-03-23T09:02:02.303Z,3136.00
2023-03-23T09:03:02.291Z,3272.00
2023-03-23T09:04:02.275Z,3480.00
2023-03-23T09:05:02.260Z,2856.00
2023-03-23T09:06:02.250Z,2584.00
2023-03-23T09:07:02.236Z,1952.00
2023-03-23T09:08:02.213Z,2512.00
2023-03-23T09:09:02.222Z,3084.00
2023-03-23T09:10:02.193Z,2944.00
2023-03-23T09:11:02.166Z,3728.00
2023-03-23T09:12:02.152Z,3548.00
2023-03-23T09:13:02.135Z,2972.00
2023-03-23T09:14:02.148Z,2276.00
2023-03-23T09:15:02.108Z,2212.00
2023-03-23T09:16:02.194Z,2460.00
2023-03-23T09:17:02.085Z,2828.00
2023-03-23T09:18:02.468Z,1972.00
2023-03-23T09:19:02.072Z,2520.00
2023-03-23T09:20:02.030Z,3264.00
2023-03-23T09:21:02.015Z,2748.00
2023-03-23T09:22:02.002Z,1704.00
2023-03-23T09:23:01.982Z,1692.00
2023-03-23T09:24:01.974Z,2000.00
2023-03-23T09:25:01.952Z,2044.00
2023-03-23T09:26:02.089Z,1408.00
2023-03-23T09:27:01.937Z,1356.00
2023-03-23T09:28:01.910Z,1608.00
2023-03-23T09:29:01.898Z,1460.00
2023-03-23T09:30:01.910Z,1148.00
2023-03-23T09:31:01.863Z,1208.00
2023-03-23T09:32:01.864Z,1552.00
2023-03-23T09:33:01.833Z,1476.00
2023-03-23T09:34:01.823Z,1176.00
2023-03-23T09:35:01.844Z,1224.00
2023-03-23T09:36:01.821Z,1392.00
2023-03-23T09:37:01.775Z,1524.00
2023-03-23T09:38:01.756Z,1916.00
2023-03-23T09:39:01.752Z,2044.00
2023-03-23T09:40:06.757Z,2396.00
2023-03-23T09:41:01.742Z,2224.00
2023-03-23T09:42:01.710Z,2708.00
2023-03-23T09:43:01.682Z,2416.00
2023-03-23T09:44:01.724Z,2492.00
2023-03-23T09:45:01.653Z,2304.00
2023-03-23T09:46:01.642Z,2192.00
2023-03-23T09:47:01.629Z,1892.00
2023-03-23T09:48:01.603Z,1548.00
2023-03-23T09:49:01.591Z,1764.00
2023-03-23T09:50:01.605Z,1640.00
2023-03-23T09:51:01.560Z,1452.00
2023-03-23T09:52:01.542Z,1428.00
2023-03-23T09:53:01.528Z,1240.00
2023-03-23T09:54:01.512Z,1436.00
2023-03-23T09:55:01.534Z,1916.00
2023-03-23T09:56:01.483Z,1936.00
2023-03-23T09:57:01.469Z,1976.00
2023-03-23T09:58:01.461Z,2292.00
2023-03-23T09:59:01.471Z,2228.00
2023-03-23T10:00:01.421Z,1828.00
2023-03-23T10:01:01.438Z,2280.00
2023-03-23T10:02:01.390Z,2460.00
2023-03-23T10:03:01.402Z,2192.00
2023-03-23T10:04:01.362Z,1836.00
2023-03-23T10:05:01.349Z,2128.00
2023-03-23T10:06:01.333Z,2576.00
2023-03-23T10:07:01.329Z,2584.00
2023-03-23T10:08:01.314Z,2040.00
2023-03-23T10:09:01.283Z,2596.00
2023-03-23T10:10:01.273Z,3080.00
2023-03-23T10:11:01.283Z,2680.00
2023-03-23T10:12:01.273Z,2932.00
2023-03-23T10:13:01.222Z,2976.00
2023-03-23T10:14:01.218Z,2984.00
2023-03-23T10:15:01.196Z,2860.00
2023-03-23T10:16:01.176Z,2660.00
2023-03-23T10:17:01.225Z,2284.00
2023-03-23T10:18:01.147Z,2040.00
2023-03-23T10:19:01.136Z,1996.00
2023-03-23T10:20:01.129Z,2372.00
2023-03-23T10:21:01.101Z,2828.00
2023-03-23T10:22:01.119Z,3080.00
2023-03-23T10:23:01.080Z,3352.00
2023-03-23T10:24:01.065Z,3516.00
2023-03-23T10:25:01.038Z,3508.00
2023-03-23T10:26:01.022Z,2528.00
2023-03-23T10:27:01.057Z,1892.00
2023-03-23T10:28:00.993Z,1320.00
2023-03-23T10:29:00.976Z,1256.00
2023-03-23T10:30:00.968Z,1368.00
2023-03-23T10:31:00.947Z,1236.00
2023-03-23T10:32:01.198Z,1256.00
2023-03-23T10:33:00.914Z,1096.00
2023-03-23T10:34:00.898Z,1108.00
2023-03-23T10:35:00.901Z,1320.00
2023-03-23T10:36:00.920Z,1096.00
2023-03-23T10:37:00.851Z,1224.00
2023-03-23T10:38:00.861Z,1248.00
2023-03-23T10:39:00.819Z,1412.00
2023-03-23T10:40:00.809Z,1528.00
2023-03-23T10:41:00.786Z,844.00
2023-03-23T10:42:00.784Z,540.00
2023-03-23T10:43:00.782Z,1040.00
2023-03-23T10:44:00.743Z,1740.00
2023-03-23T10:45:00.723Z,2300.00
2023-03-23T10:46:01.097Z,2528.00
2023-03-23T10:47:00.692Z,2536.00
2023-03-23T10:48:00.740Z,2488.00
2023-03-23T10:49:00.658Z,2388.00
2023-03-23T10:50:00.659Z,2452.00
2023-03-23T10:51:00.636Z,2640.00
2023-03-23T10:52:00.616Z,2376.00
2023-03-23T10:53:00.620Z,2148.00
2023-03-23T10:54:00.585Z,2096.00
2023-03-23T10:55:00.569Z,2096.00
2023-03-23T10:56:00.551Z,2240.00
2023-03-23T10:57:02.598Z,2536.00
2023-03-23T10:58:00.554Z,3168.00
2023-03-23T10:59:00.528Z,3672.00
2023-03-23T11:00:00.506Z,3832.00
2023-03-23T11:01:00.465Z,3888.00
2023-03-23T11:02:00.463Z,4504.00
2023-03-23T11:03:00.433Z,3744.00
2023-03-23T11:04:00.460Z,3116.00
2023-03-23T11:05:05.144Z,2864.00
2023-03-23T11:06:00.388Z,3156.00
2023-03-23T11:07:00.369Z,3872.00
2023-03-23T11:08:00.352Z,4124.00
2023-03-23T11:09:00.371Z,4228.00
2023-03-23T11:10:00.320Z,3828.00
2023-03-23T11:11:00.460Z,3840.00
2023-03-23T11:12:02.281Z,3668.00
2023-03-23T11:13:00.385Z,2996.00
2023-03-23T11:14:00.585Z,2804.00
2023-03-23T11:15:00.378Z,3228.00
2023-03-23T11:16:00.324Z,2988.00
2023-03-23T11:17:10.337Z,3312.00
2023-03-23T11:18:00.309Z,3616.00
2023-03-23T11:19:00.312Z,3844.00
2023-03-23T11:20:00.270Z,4232.00
2023-03-23T11:21:00.261Z,4300.00
2023-03-23T11:22:00.478Z,3924.00
2023-03-23T11:23:00.254Z,3724.00
2023-03-23T11:24:09.238Z,3580.00
2023-03-23T11:25:00.251Z,3216.00
2023-03-23T11:26:00.195Z,2988.00
2023-03-23T11:27:00.046Z,3668.00
2023-03-23T11:28:00.148Z,4700.00
2023-03-23T11:29:00.157Z,4312.00
2023-03-23T11:30:00.173Z,4700.00
2023-03-23T11:31:00.082Z,4460.00
2023-03-23T11:32:00.149Z,3956.00
2023-03-23T11:33:00.011Z,3596.00
2023-03-23T11:34:05.864Z,4824.00
2023-03-23T11:35:13.800Z,6660.00
2023-03-23T11:36:00.004Z,7620.00
2023-03-23T11:37:00.027Z,7804.00
2023-03-23T11:37:59.991Z,8140.00
2023-03-23T11:38:59.975Z,5764.00
2023-03-23T11:40:00.128Z,4596.00
2023-03-23T11:40:59.933Z,3624.00
2023-03-23T11:42:09.061Z,3784.00
2023-03-23T11:42:59.860Z,3096.00
2023-03-23T11:43:59.771Z,2320.00
2023-03-23T11:44:59.781Z,1760.00
2023-03-23T11:45:59.785Z,1620.00
2023-03-23T11:46:59.733Z,1564.00
2023-03-23T11:47:59.710Z,1632.00
2023-03-23T11:48:59.689Z,2024.00
2023-03-23T11:49:59.722Z,1988.00
2023-03-23T11:50:59.657Z,1724.00
2023-03-23T11:51:59.640Z,2116.00
2023-03-23T11:52:59.649Z,2188.00
2023-03-23T11:53:59.710Z,1996.00
2023-03-23T11:54:59.613Z,1928.00
2023-03-23T11:55:59.624Z,1864.00
2023-03-23T11:56:59.558Z,1796.00
2023-03-23T11:57:59.573Z,1852.00
2023-03-23T11:58:59.522Z,1768.00
2023-03-23T11:59:59.518Z,1984.00
2023-03-23T12:00:59.519Z,2528.00
2023-03-23T12:02:08.506Z,2868.00
2023-03-23T12:02:59.456Z,2816.00
2023-03-23T12:03:59.450Z,2820.00
2023-03-23T12:04:59.500Z,3748.00
2023-03-23T12:05:59.421Z,4136.00
2023-03-23T12:06:59.393Z,3864.00
2023-03-23T12:07:59.375Z,3908.00
2023-03-23T12:08:59.360Z,4988.00
2023-03-23T12:09:59.340Z,4416.00
2023-03-23T12:11:01.628Z,3664.00
2023-03-23T12:11:59.310Z,3804.00
2023-03-23T12:12:59.295Z,3776.00
2023-03-23T12:13:59.303Z,4228.00
2023-03-23T12:14:59.289Z,3892.00
2023-03-23T12:15:59.240Z,3564.00
2023-03-23T12:16:59.224Z,3988.00
2023-03-23T12:17:59.235Z,4280.00
2023-03-23T12:18:59.196Z,3412.00
2023-03-23T12:19:59.180Z,3120.00
2023-03-23T12:20:59.164Z,3068.00
2023-03-23T12:21:59.179Z,3080.00
2023-03-23T12:22:59.131Z,2880.00
2023-03-23T12:24:01.477Z,3124.00
2023-03-23T12:24:59.102Z,3736.00
2023-03-23T12:25:59.098Z,2404.00
2023-03-23T12:26:59.064Z,2880.00
2023-03-23T12:27:59.047Z,3660.00
2023-03-23T12:28:59.029Z,4312.00
2023-03-23T12:29:59.041Z,4400.00
2023-03-23T12:30:59.002Z,5216.00
2023-03-23T12:31:58.981Z,6060.00
2023-03-23T12:32:58.968Z,6520.00
2023-03-23T12:33:58.955Z,6148.00
2023-03-23T12:34:58.964Z,5464.00
2023-03-23T12:35:59.054Z,5436.00
2023-03-23T12:36:58.900Z,5096.00